Terminal Aerodrome Forecast
Issued by NWS Charleston, WV

Home | Current Version | Previous Version | Text Only | Print | Product List | Glossary On
Versions: 1 2 3 4 5 6 7 8 9 10 11 12 13 14 15 16 17 18 19 20 21 22 23 24 25 26 27 28
000
FTUS41 KRLX 300259 AAA
TAFEKN
TAF AMD
KEKN 300259Z 3003/3024 00000KT P6SM BKN100
     FM300700 00000KT 2SM BR SCT060
     FM300900 00000KT 3/4SM BR SCT001 SCT045
     FM301300 VRB03KT P6SM BKN045
     FM301800 22005KT P6SM VCTS BKN045CB=

USA.gov is the U.S. government's official web portal to all federal, state and local government web resources and services.